sensor_id;sensor_type;location;lat;lon;timestamp;temperature;humidity
9939;DHT22;5008;50.656;7.188;2023-01-19T05:02:04;0.40;99.90
9939;DHT22;5008;50.656;7.188;2023-01-19T05:04:31;0.50;99.90
9939;DHT22;5008;50.656;7.188;2023-01-19T05:06:58;0.50;99.90
9939;DHT22;5008;50.656;7.188;2023-01-19T05:09:25;0.70;99.90
9939;DHT22;5008;50.656;7.188;2023-01-19T05:11:52;0.70;99.90
9939;DHT22;5008;50.656;7.188;2023-01-19T05:14:19;0.70;99.90
9939;DHT22;5008;50.656;7.188;2023-01-19T05:16:45;0.80;99.90
9939;DHT22;5008;50.656;7.188;2023-01-19T05:19:13;0.90;99.90
9939;DHT22;5008;50.656;7.188;2023-01-19T05:21:40;1.00;99.90
9939;DHT22;5008;50.656;7.188;2023-01-19T05:24:07;1.00;99.90
9939;DHT22;5008;50.656;7.188;2023-01-19T05:26:34;1.00;99.90
9939;DHT22;5008;50.656;7.188;2023-01-19T05:29:02;1.10;99.90
9939;DHT22;5008;50.656;7.188;2023-01-19T05:31:28;1.20;99.90
9939;DHT22;5008;50.656;7.188;2023-01-19T05:33:55;1.20;99.90
9939;DHT22;5008;50.656;7.188;2023-01-19T05:36:23;1.20;99.90
9939;DHT22;5008;50.656;7.188;2023-01-19T05:38:50;1.20;99.90
9939;DHT22;5008;50.656;7.188;2023-01-19T05:41:17;1.30;99.90
9939;DHT22;5008;50.656;7.188;2023-01-19T05:43:48;1.30;99.90
9939;DHT22;5008;50.656;7.188;2023-01-19T05:46:14;1.30;99.90
9939;DHT22;5008;50.656;7.188;2023-01-19T05:48:41;1.30;99.90
9939;DHT22;5008;50.656;7.188;2023-01-19T05:51:08;1.30;99.90
9939;DHT22;5008;50.656;7.188;2023-01-19T05:53:36;1.40;99.90
9939;DHT22;5008;50.656;7.188;2023-01-19T05:56:05;1.40;99.90
9939;DHT22;5008;50.656;7.188;2023-01-19T05:58:33;1.40;99.90
9939;DHT22;5008;50.656;7.188;2023-01-19T06:01:01;1.40;99.90
9939;DHT22;5008;50.656;7.188;2023-01-19T06:03:29;1.40;99.90
9939;DHT22;5008;50.656;7.188;2023-01-19T06:05:56;1.40;99.90
9939;DHT22;5008;50.656;7.188;2023-01-19T06:08:23;1.40;99.90
9939;DHT22;5008;50.656;7.188;2023-01-19T06:10:52;1.40;99.90
9939;DHT22;5008;50.656;7.188;2023-01-19T06:13:18;1.50;99.90
9939;DHT22;5008;50.656;7.188;2023-01-19T06:15:45;1.50;99.90
9939;DHT22;5008;50.656;7.188;2023-01-19T06:18:13;1.50;99.90
9939;DHT22;5008;50.656;7.188;2023-01-19T06:20:40;1.50;99.90
9939;DHT22;5008;50.656;7.188;2023-01-19T06:23:07;1.50;99.90
9939;DHT22;5008;50.656;7.188;2023-01-19T06:25:35;1.60;99.90
9939;DHT22;5008;50.656;7.188;2023-01-19T06:28:03;1.60;99.90
9939;DHT22;5008;50.656;7.188;2023-01-19T06:30:30;1.60;99.90
9939;DHT22;5008;50.656;7.188;2023-01-19T06:32:57;1.70;99.90
9939;DHT22;5008;50.656;7.188;2023-01-19T06:35:24;1.70;99.90
9939;DHT22;5008;50.656;7.188;2023-01-19T06:37:51;1.70;99.90
9939;DHT22;5008;50.656;7.188;2023-01-19T06:40:18;1.80;99.90
9939;DHT22;5008;50.656;7.188;2023-01-19T06:42:45;1.80;99.90
9939;DHT22;5008;50.656;7.188;2023-01-19T06:45:15;2.00;99.90
9939;DHT22;5008;50.656;7.188;2023-01-19T06:47:42;2.00;99.90
9939;DHT22;5008;50.656;7.188;2023-01-19T06:50:09;2.10;99.90
9939;DHT22;5008;50.656;7.188;2023-01-19T06:52:36;2.20;99.90
9939;DHT22;5008;50.656;7.188;2023-01-19T06:55:07;2.30;99.90
9939;DHT22;5008;50.656;7.188;2023-01-19T06:57:35;2.30;99.90
9939;DHT22;5008;50.656;7.188;2023-01-19T07:00:03;2.30;99.90
9939;DHT22;5008;50.656;7.188;2023-01-19T07:02:33;2.30;99.90
9939;DHT22;5008;50.656;7.188;2023-01-19T07:05:00;2.30;99.90
9939;DHT22;5008;50.656;7.188;2023-01-19T07:07:27;2.20;99.90
9939;DHT22;5008;50.656;7.188;2023-01-19T07:09:54;2.10;99.90
9939;DHT22;5008;50.656;7.188;2023-01-19T07:12:21;2.10;99.90
9939;DHT22;5008;50.656;7.188;2023-01-19T07:14:47;2.00;99.90
9939;DHT22;5008;50.656;7.188;2023-01-19T07:17:14;2.00;99.90
9939;DHT22;5008;50.656;7.188;2023-01-19T07:19:42;2.10;99.90
9939;DHT22;5008;50.656;7.188;2023-01-19T07:22:09;2.10;99.90
9939;DHT22;5008;50.656;7.188;2023-01-19T07:24:36;2.00;99.90
9939;DHT22;5008;50.656;7.188;2023-01-19T07:27:03;2.00;99.90
9939;DHT22;5008;50.656;7.188;2023-01-19T07:29:30;2.00;99.90
9939;DHT22;5008;50.656;7.188;2023-01-19T07:31:57;2.00;99.90
9939;DHT22;5008;50.656;7.188;2023-01-19T07:34:23;2.10;99.90
9939;DHT22;5008;50.656;7.188;2023-01-19T07:36:51;2.10;99.90
9939;DHT22;5008;50.656;7.188;2023-01-19T07:39:18;2.00;99.90
9939;DHT22;5008;50.656;7.188;2023-01-19T07:41:47;2.00;99.90
9939;DHT22;5008;50.656;7.188;2023-01-19T07:44:14;2.00;99.90
9939;DHT22;5008;50.656;7.188;2023-01-19T07:46:40;2.10;99.90
9939;DHT22;5008;50.656;7.188;2023-01-19T07:49:08;2.00;99.90
9939;DHT22;5008;50.656;7.188;2023-01-19T07:51:35;1.90;99.90
9939;DHT22;5008;50.656;7.188;2023-01-19T07:54:07;1.90;99.90
9939;DHT22;5008;50.656;7.188;2023-01-19T07:56:34;2.00;99.90
9939;DHT22;5008;50.656;7.188;2023-01-19T07:59:01;2.00;99.90
9939;DHT22;5008;50.656;7.188;2023-01-19T08:01:27;2.10;99.90
9939;DHT22;5008;50.656;7.188;2023-01-19T08:03:58;2.00;99.90
9939;DHT22;5008;50.656;7.188;2023-01-19T08:06:33;2.10;99.90
9939;DHT22;5008;50.656;7.188;2023-01-19T08:09:04;2.20;99.90
9939;DHT22;5008;50.656;7.188;2023-01-19T08:11:31;2.20;99.90
9939;DHT22;5008;50.656;7.188;2023-01-19T08:13:58;2.10;99.90
9939;DHT22;5008;50.656;7.188;2023-01-19T08:16:25;2.10;99.90
9939;DHT22;5008;50.656;7.188;2023-01-19T08:18:52;2.00;99.90
9939;DHT22;5008;50.656;7.188;2023-01-19T08:21:19;2.00;99.90
9939;DHT22;5008;50.656;7.188;2023-01-19T08:23:52;2.00;99.90
9939;DHT22;5008;50.656;7.188;2023-01-19T08:26:26;2.10;99.90
9939;DHT22;5008;50.656;7.188;2023-01-19T08:28:54;2.10;99.90
9939;DHT22;5008;50.656;7.188;2023-01-19T08:31:22;2.10;99.90
9939;DHT22;5008;50.656;7.188;2023-01-19T08:33:59;2.10;99.90
9939;DHT22;5008;50.656;7.188;2023-01-19T08:36:34;2.10;99.90
9939;DHT22;5008;50.656;7.188;2023-01-19T08:39:00;2.10;99.90
9939;DHT22;5008;50.656;7.188;2023-01-19T08:44:51;2.10;99.90
9939;DHT22;5008;50.656;7.188;2023-01-19T08:47:17;2.20;99.90
9939;DHT22;5008;50.656;7.188;2023-01-19T08:49:44;2.20;99.90
9939;DHT22;5008;50.656;7.188;2023-01-19T08:52:23;2.20;99.90
9939;DHT22;5008;50.656;7.188;2023-01-19T08:54:51;2.30;99.90
9939;DHT22;5008;50.656;7.188;2023-01-19T08:57:17;2.30;99.90
9939;DHT22;5008;50.656;7.188;2023-01-19T08:59:44;2.30;99.90
9939;DHT22;5008;50.656;7.188;2023-01-19T09:02:13;2.30;99.90
9939;DHT22;5008;50.656;7.188;2023-01-19T09:04:39;2.30;99.90
9939;DHT22;5008;50.656;7.188;2023-01-19T09:07:06;2.30;99.90
9939;DHT22;5008;50.656;7.188;2023-01-19T09:09:33;2.30;99.90
9939;DHT22;5008;50.656;7.188;2023-01-19T09:12:02;2.30;99.90
9939;DHT22;5008;50.656;7.188;2023-01-19T09:14:37;2.50;99.90
9939;DHT22;5008;50.656;7.188;2023-01-19T09:17:04;2.50;99.90
9939;DHT22;5008;50.656;7.188;2023-01-19T09:19:32;2.50;99.90
9939;DHT22;5008;50.656;7.188;2023-01-19T09:22:00;2.80;99.90
9939;DHT22;5008;50.656;7.188;2023-01-19T09:24:26;2.80;99.90
9939;DHT22;5008;50.656;7.188;2023-01-19T09:26:53;2.70;99.90
9939;DHT22;5008;50.656;7.188;2023-01-19T09:29:20;2.60;99.90
9939;DHT22;5008;50.656;7.188;2023-01-19T09:31:53;2.70;99.90
9939;DHT22;5008;50.656;7.188;2023-01-19T09:34:20;2.70;99.90
9939;DHT22;5008;50.656;7.188;2023-01-19T09:36:48;2.70;99.90
9939;DHT22;5008;50.656;7.188;2023-01-19T09:39:15;2.70;99.90
9939;DHT22;5008;50.656;7.188;2023-01-19T09:41:46;2.80;99.90
9939;DHT22;5008;50.656;7.188;2023-01-19T09:44:27;2.90;99.90
9939;DHT22;5008;50.656;7.188;2023-01-19T09:46:54;2.90;99.90
9939;DHT22;5008;50.656;7.188;2023-01-19T09:49:26;2.90;99.90
9939;DHT22;5008;50.656;7.188;2023-01-19T09:51:57;2.80;99.90
9939;DHT22;5008;50.656;7.188;2023-01-19T09:54:30;2.80;99.90
9939;DHT22;5008;50.656;7.188;2023-01-19T09:57:00;2.80;99.90
9939;DHT22;5008;50.656;7.188;2023-01-19T09:59:28;2.80;99.90
9939;DHT22;5008;50.656;7.188;2023-01-19T10:02:05;2.90;99.90
9939;DHT22;5008;50.656;7.188;2023-01-19T10:04:36;3.30;99.90
9939;DHT22;5008;50.656;7.188;2023-01-19T10:07:28;3.20;99.90
9939;DHT22;5008;50.656;7.188;2023-01-19T10:10:09;3.20;99.90
9939;DHT22;5008;50.656;7.188;2023-01-19T10:12:44;3.10;99.90
9939;DHT22;5008;50.656;7.188;2023-01-19T10:15:25;3.10;99.90
9939;DHT22;5008;50.656;7.188;2023-01-19T10:18:05;3.00;99.90
9939;DHT22;5008;50.656;7.188;2023-01-19T10:20:37;3.00;99.90
9939;DHT22;5008;50.656;7.188;2023-01-19T10:23:21;2.90;99.90
9939;DHT22;5008;50.656;7.188;2023-01-19T10:25:50;2.90;99.90
9939;DHT22;5008;50.656;7.188;2023-01-19T10:28:22;3.00;99.90
9939;DHT22;5008;50.656;7.188;2023-01-19T10:30:50;3.10;99.90
9939;DHT22;5008;50.656;7.188;2023-01-19T10:33:19;3.10;99.90
9939;DHT22;5008;50.656;7.188;2023-01-19T10:35:46;3.10;99.90
9939;DHT22;5008;50.656;7.188;2023-01-19T10:38:15;3.00;99.90
9939;DHT22;5008;50.656;7.188;2023-01-19T10:40:51;3.10;99.90
9939;DHT22;5008;50.656;7.188;2023-01-19T10:43:37;3.10;99.90
9939;DHT22;5008;50.656;7.188;2023-01-19T10:46:05;3.10;99.90
9939;DHT22;5008;50.656;7.188;2023-01-19T10:48:37;3.10;99.90
9939;DHT22;5008;50.656;7.188;2023-01-19T10:51:12;3.10;99.90
9939;DHT22;5008;50.656;7.188;2023-01-19T10:53:42;3.10;99.90
9939;DHT22;5008;50.656;7.188;2023-01-19T10:56:22;3.00;99.90
9939;DHT22;5008;50.656;7.188;2023-01-19T10:58:49;3.00;99.90
9939;DHT22;5008;50.656;7.188;2023-01-19T11:01:18;2.90;99.90
9939;DHT22;5008;50.656;7.188;2023-01-19T11:03:46;2.90;99.90
9939;DHT22;5008;50.656;7.188;2023-01-19T11:06:21;3.00;99.90
9939;DHT22;5008;50.656;7.188;2023-01-19T11:08:51;3.00;99.90
9939;DHT22;5008;50.656;7.188;2023-01-19T11:11:19;3.20;99.90
9939;DHT22;5008;50.656;7.188;2023-01-19T11:14:02;3.20;99.90
9939;DHT22;5008;50.656;7.188;2023-01-19T11:16:31;3.30;99.90
9939;DHT22;5008;50.656;7.188;2023-01-19T11:18:59;3.30;99.90
9939;DHT22;5008;50.656;7.188;2023-01-19T11:21:30;3.30;99.90
9939;DHT22;5008;50.656;7.188;2023-01-19T11:24:01;3.30;99.90
9939;DHT22;5008;50.656;7.188;2023-01-19T11:26:32;3.30;99.90
9939;DHT22;5008;50.656;7.188;2023-01-19T11:29:01;3.30;99.90
9939;DHT22;5008;50.656;7.188;2023-01-19T11:31:31;3.30;99.90
9939;DHT22;5008;50.656;7.188;2023-01-19T11:34:00;3.30;99.90
9939;DHT22;5008;50.656;7.188;2023-01-19T11:36:28;3.40;99.90
9939;DHT22;5008;50.656;7.188;2023-01-19T11:38:57;3.50;99.90
9939;DHT22;5008;50.656;7.188;2023-01-19T11:41:28;3.50;99.90
9939;DHT22;5008;50.656;7.188;2023-01-19T11:43:58;3.40;99.90
9939;DHT22;5008;50.656;7.188;2023-01-19T11:46:31;3.50;99.90
9939;DHT22;5008;50.656;7.188;2023-01-19T11:49:01;3.50;99.90
9939;DHT22;5008;50.656;7.188;2023-01-19T11:51:34;3.60;99.90
9939;DHT22;5008;50.656;7.188;2023-01-19T11:54:12;3.70;99.90
9939;DHT22;5008;50.656;7.188;2023-01-19T11:56:42;3.80;99.90
9939;DHT22;5008;50.656;7.188;2023-01-19T11:59:11;3.80;99.90
9939;DHT22;5008;50.656;7.188;2023-01-19T12:01:43;3.90;99.90
9939;DHT22;5008;50.656;7.188;2023-01-19T12:04:13;4.00;99.90
9939;DHT22;5008;50.656;7.188;2023-01-19T12:06:43;4.00;99.90
9939;DHT22;5008;50.656;7.188;2023-01-19T12:09:16;4.10;99.90
9939;DHT22;5008;50.656;7.188;2023-01-19T12:11:49;4.20;99.90
9939;DHT22;5008;50.656;7.188;2023-01-19T12:14:21;4.30;99.90
9939;DHT22;5008;50.656;7.188;2023-01-19T12:16:53;4.30;99.90
9939;DHT22;5008;50.656;7.188;2023-01-19T12:19:24;4.30;99.90
9939;DHT22;5008;50.656;7.188;2023-01-19T12:21:52;4.50;99.90
9939;DHT22;5008;50.656;7.188;2023-01-19T12:24:26;4.50;99.90
9939;DHT22;5008;50.656;7.188;2023-01-19T12:26:58;4.50;99.90
9939;DHT22;5008;50.656;7.188;2023-01-19T12:29:29;4.60;99.90
9939;DHT22;5008;50.656;7.188;2023-01-19T12:32:16;4.70;99.90
9939;DHT22;5008;50.656;7.188;2023-01-19T12:34:43;4.60;99.90
9939;DHT22;5008;50.656;7.188;2023-01-19T12:37:35;4.80;99.90
9939;DHT22;5008;50.656;7.188;2023-01-19T12:40:17;5.10;99.90
9939;DHT22;5008;50.656;7.188;2023-01-19T12:42:50;5.80;99.90
9939;DHT22;5008;50.656;7.188;2023-01-19T12:45:21;6.40;99.90
9939;DHT22;5008;50.656;7.188;2023-01-19T12:47:50;6.50;99.90
9939;DHT22;5008;50.656;7.188;2023-01-19T12:50:19;7.10;99.90
9939;DHT22;5008;50.656;7.188;2023-01-19T12:52:49;7.90;99.90
9939;DHT22;5008;50.656;7.188;2023-01-19T12:55:23;8.70;99.90
9939;DHT22;5008;50.656;7.188;2023-01-19T12:57:59;8.40;99.90
9939;DHT22;5008;50.656;7.188;2023-01-19T13:00:36;7.80;99.90
9939;DHT22;5008;50.656;7.188;2023-01-19T13:05:51;6.60;99.90
9939;DHT22;5008;50.656;7.188;2023-01-19T13:08:27;6.10;99.90
9939;DHT22;5008;50.656;7.188;2023-01-19T13:11:19;5.70;99.90
9939;DHT22;5008;50.656;7.188;2023-01-19T13:20:00;5.50;99.90
9939;DHT22;5008;50.656;7.188;2023-01-19T13:25:32;5.50;99.90
9939;DHT22;5008;50.656;7.188;2023-01-19T13:28:01;5.50;99.90
9939;DHT22;5008;50.656;7.188;2023-01-19T13:30:29;5.50;99.90
9939;DHT22;5008;50.656;7.188;2023-01-19T13:33:04;5.50;99.90
9939;DHT22;5008;50.656;7.188;2023-01-19T13:35:31;5.40;99.90
9939;DHT22;5008;50.656;7.188;2023-01-19T13:37:58;5.40;99.90
9939;DHT22;5008;50.656;7.188;2023-01-19T13:40:32;5.40;99.90
9939;DHT22;5008;50.656;7.188;2023-01-19T13:43:02;5.40;99.90
9939;DHT22;5008;50.656;7.188;2023-01-19T13:45:34;5.40;99.90
9939;DHT22;5008;50.656;7.188;2023-01-19T13:48:05;5.40;99.90
9939;DHT22;5008;50.656;7.188;2023-01-19T13:50:35;5.30;99.90
9939;DHT22;5008;50.656;7.188;2023-01-19T13:53:15;5.40;99.90
9939;DHT22;5008;50.656;7.188;2023-01-19T13:55:43;5.40;99.90
9939;DHT22;5008;50.656;7.188;2023-01-19T13:58:19;5.30;99.90
9939;DHT22;5008;50.656;7.188;2023-01-19T14:00:48;5.50;99.90
9939;DHT22;5008;50.656;7.188;2023-01-19T14:03:17;5.60;99.90
9939;DHT22;5008;50.656;7.188;2023-01-19T14:05:49;5.60;99.90
9939;DHT22;5008;50.656;7.188;2023-01-19T14:08:17;5.60;99.90
9939;DHT22;5008;50.656;7.188;2023-01-19T14:10:46;5.50;99.90
9939;DHT22;5008;50.656;7.188;2023-01-19T14:13:27;5.50;99.90
9939;DHT22;5008;50.656;7.188;2023-01-19T14:15:57;5.20;99.90
9939;DHT22;5008;50.656;7.188;2023-01-19T14:18:27;5.20;99.90
9939;DHT22;5008;50.656;7.188;2023-01-19T14:20:57;5.20;99.90
9939;DHT22;5008;50.656;7.188;2023-01-19T14:23:45;5.00;99.90
9939;DHT22;5008;50.656;7.188;2023-01-19T14:26:37;4.90;99.90
9939;DHT22;5008;50.656;7.188;2023-01-19T14:29:12;4.80;99.90
9939;DHT22;5008;50.656;7.188;2023-01-19T14:31:42;4.80;99.90
9939;DHT22;5008;50.656;7.188;2023-01-19T14:34:35;4.70;99.90
9939;DHT22;5008;50.656;7.188;2023-01-19T14:37:04;4.70;99.90
9939;DHT22;5008;50.656;7.188;2023-01-19T14:39:43;4.70;99.90
9939;DHT22;5008;50.656;7.188;2023-01-19T14:42:15;4.70;99.90
9939;DHT22;5008;50.656;7.188;2023-01-19T14:44:45;4.60;99.90
9939;DHT22;5008;50.656;7.188;2023-01-19T14:47:32;4.60;99.90
9939;DHT22;5008;50.656;7.188;2023-01-19T14:50:05;4.60;99.90
9939;DHT22;5008;50.656;7.188;2023-01-19T14:52:36;4.60;99.90
9939;DHT22;5008;50.656;7.188;2023-01-19T14:55:05;4.60;99.90
9939;DHT22;5008;50.656;7.188;2023-01-19T14:57:33;4.60;99.90
9939;DHT22;5008;50.656;7.188;2023-01-19T15:00:05;4.60;99.90
9939;DHT22;5008;50.656;7.188;2023-01-19T15:02:31;4.60;99.90
9939;DHT22;5008;50.656;7.188;2023-01-19T15:05:00;4.60;99.90
9939;DHT22;5008;50.656;7.188;2023-01-19T15:07:28;4.60;99.90
9939;DHT22;5008;50.656;7.188;2023-01-19T15:09:54;4.60;99.90
9939;DHT22;5008;50.656;7.188;2023-01-19T15:12:24;4.60;99.90
9939;DHT22;5008;50.656;7.188;2023-01-19T15:14:53;4.60;99.90
9939;DHT22;5008;50.656;7.188;2023-01-19T15:17:21;4.60;99.90
9939;DHT22;5008;50.656;7.188;2023-01-19T15:19:51;4.50;99.90
9939;DHT22;5008;50.656;7.188;2023-01-19T15:22:20;4.50;99.90
9939;DHT22;5008;50.656;7.188;2023-01-19T15:24:48;4.50;99.90
9939;DHT22;5008;50.656;7.188;2023-01-19T15:27:15;4.50;99.90
9939;DHT22;5008;50.656;7.188;2023-01-19T15:29:42;4.50;99.90
9939;DHT22;5008;50.656;7.188;2023-01-19T15:32:11;4.50;99.90
9939;DHT22;5008;50.656;7.188;2023-01-19T15:34:38;4.50;99.90
9939;DHT22;5008;50.656;7.188;2023-01-19T15:37:05;4.50;99.90
9939;DHT22;5008;50.656;7.188;2023-01-19T15:39:33;4.50;99.90
9939;DHT22;5008;50.656;7.188;2023-01-19T15:42:00;4.40;99.90
9939;DHT22;5008;50.656;7.188;2023-01-19T15:44:27;4.50;99.90
9939;DHT22;5008;50.656;7.188;2023-01-19T15:46:54;4.40;99.90
9939;DHT22;5008;50.656;7.188;2023-01-19T15:49:21;4.40;99.90
9939;DHT22;5008;50.656;7.188;2023-01-19T15:51:48;4.40;99.90
9939;DHT22;5008;50.656;7.188;2023-01-19T15:54:15;4.40;99.90
9939;DHT22;5008;50.656;7.188;2023-01-19T15:56:44;4.30;99.90
9939;DHT22;5008;50.656;7.188;2023-01-19T15:59:11;4.30;99.90
9939;DHT22;5008;50.656;7.188;2023-01-19T16:01:39;4.30;99.90
9939;DHT22;5008;50.656;7.188;2023-01-19T16:04:06;4.20;99.90
9939;DHT22;5008;50.656;7.188;2023-01-19T16:06:33;4.20;99.90
9939;DHT22;5008;50.656;7.188;2023-01-19T16:09:00;4.10;99.90
9939;DHT22;5008;50.656;7.188;2023-01-19T16:11:30;4.10;99.90
9939;DHT22;5008;50.656;7.188;2023-01-19T16:13:58;4.10;99.90
9939;DHT22;5008;50.656;7.188;2023-01-19T16:16:25;4.00;99.90
9939;DHT22;5008;50.656;7.188;2023-01-19T16:18:52;3.90;99.90
9939;DHT22;5008;50.656;7.188;2023-01-19T16:21:19;3.90;99.90
9939;DHT22;5008;50.656;7.188;2023-01-19T16:23:46;3.80;99.90
9939;DHT22;5008;50.656;7.188;2023-01-19T16:26:27;3.80;99.90
9939;DHT22;5008;50.656;7.188;2023-01-19T16:28:57;3.70;99.90
9939;DHT22;5008;50.656;7.188;2023-01-19T16:31:24;3.70;99.90
9939;DHT22;5008;50.656;7.188;2023-01-19T16:33:51;3.70;99.90
9939;DHT22;5008;50.656;7.188;2023-01-19T16:36:23;3.60;99.90
9939;DHT22;5008;50.656;7.188;2023-01-19T16:38:50;3.50;99.90
9939;DHT22;5008;50.656;7.188;2023-01-19T16:41:17;3.40;99.90
9939;DHT22;5008;50.656;7.188;2023-01-19T16:43:49;3.50;99.90
9939;DHT22;5008;50.656;7.188;2023-01-19T16:46:20;3.40;99.90
9939;DHT22;5008;50.656;7.188;2023-01-19T16:48:48;3.50;99.90
9939;DHT22;5008;50.656;7.188;2023-01-19T16:51:16;3.50;99.90
9939;DHT22;5008;50.656;7.188;2023-01-19T16:53:43;3.50;99.90
9939;DHT22;5008;50.656;7.188;2023-01-19T16:56:11;3.50;99.90
9939;DHT22;5008;50.656;7.188;2023-01-19T16:58:38;3.50;99.90
9939;DHT22;5008;50.656;7.188;2023-01-19T17:01:07;3.50;99.90
9939;DHT22;5008;50.656;7.188;2023-01-19T17:03:35;3.60;99.90
9939;DHT22;5008;50.656;7.188;2023-01-19T17:06:03;3.50;99.90
9939;DHT22;5008;50.656;7.188;2023-01-19T17:08:30;3.50;99.90
9939;DHT22;5008;50.656;7.188;2023-01-19T17:10:57;3.50;99.90
9939;DHT22;5008;50.656;7.188;2023-01-19T17:13:27;3.50;99.90
9939;DHT22;5008;50.656;7.188;2023-01-19T17:15:58;3.50;99.90
9939;DHT22;5008;50.656;7.188;2023-01-19T17:18:24;3.50;99.90
9939;DHT22;5008;50.656;7.188;2023-01-19T17:20:53;3.50;99.90
9939;DHT22;5008;50.656;7.188;2023-01-19T17:23:19;3.50;99.90
9939;DHT22;5008;50.656;7.188;2023-01-19T17:25:51;3.50;99.90
9939;DHT22;5008;50.656;7.188;2023-01-19T17:28:18;3.50;99.90
9939;DHT22;5008;50.656;7.188;2023-01-19T17:30:45;3.50;99.90
9939;DHT22;5008;50.656;7.188;2023-01-19T17:33:12;3.60;99.90
9939;DHT22;5008;50.656;7.188;2023-01-19T17:35:39;3.60;99.90
9939;DHT22;5008;50.656;7.188;2023-01-19T17:38:08;3.50;99.90
9939;DHT22;5008;50.656;7.188;2023-01-19T17:40:35;3.50;99.90
9939;DHT22;5008;50.656;7.188;2023-01-19T17:43:02;3.50;99.90
9939;DHT22;5008;50.656;7.188;2023-01-19T17:45:28;3.50;99.90
9939;DHT22;5008;50.656;7.188;2023-01-19T17:47:55;3.60;99.90
9939;DHT22;5008;50.656;7.188;2023-01-19T17:50:22;3.60;99.90
9939;DHT22;5008;50.656;7.188;2023-01-19T17:52:49;3.60;99.90
9939;DHT22;5008;50.656;7.188;2023-01-19T17:55:17;3.60;99.90
9939;DHT22;5008;50.656;7.188;2023-01-19T17:57:44;3.60;99.90
9939;DHT22;5008;50.656;7.188;2023-01-19T18:00:12;3.60;99.90
9939;DHT22;5008;50.656;7.188;2023-01-19T18:02:39;3.60;99.90
9939;DHT22;5008;50.656;7.188;2023-01-19T18:05:06;3.60;99.90
9939;DHT22;5008;50.656;7.188;2023-01-19T18:07:37;3.60;99.90
9939;DHT22;5008;50.656;7.188;2023-01-19T18:10:04;3.60;99.90
9939;DHT22;5008;50.656;7.188;2023-01-19T18:12:33;3.60;99.90
9939;DHT22;5008;50.656;7.188;2023-01-19T18:15:00;3.50;99.90
9939;DHT22;5008;50.656;7.188;2023-01-19T18:17:28;3.50;99.90
9939;DHT22;5008;50.656;7.188;2023-01-19T18:19:55;3.40;99.90
9939;DHT22;5008;50.656;7.188;2023-01-19T18:22:21;3.50;99.90
9939;DHT22;5008;50.656;7.188;2023-01-19T18:24:48;3.50;99.90
9939;DHT22;5008;50.656;7.188;2023-01-19T18:27:15;3.50;99.90
9939;DHT22;5008;50.656;7.188;2023-01-19T18:29:43;3.40;99.90
9939;DHT22;5008;50.656;7.188;2023-01-19T18:32:10;3.40;99.90
9939;DHT22;5008;50.656;7.188;2023-01-19T18:34:37;3.40;99.90
9939;DHT22;5008;50.656;7.188;2023-01-19T18:37:04;3.40;99.90
9939;DHT22;5008;50.656;7.188;2023-01-19T18:39:30;3.40;99.90
9939;DHT22;5008;50.656;7.188;2023-01-19T18:41:57;3.30;99.90
9939;DHT22;5008;50.656;7.188;2023-01-19T18:44:24;3.20;99.90
9939;DHT22;5008;50.656;7.188;2023-01-19T18:46:53;3.30;99.90
9939;DHT22;5008;50.656;7.188;2023-01-19T18:49:21;3.20;99.90
9939;DHT22;5008;50.656;7.188;2023-01-19T18:51:47;3.10;99.90
9939;DHT22;5008;50.656;7.188;2023-01-19T18:54:14;3.10;99.90
9939;DHT22;5008;50.656;7.188;2023-01-19T18:56:41;3.00;99.90
9939;DHT22;5008;50.656;7.188;2023-01-19T18:59:08;2.90;99.90
9939;DHT22;5008;50.656;7.188;2023-01-19T19:01:35;2.90;99.90
9939;DHT22;5008;50.656;7.188;2023-01-19T19:04:03;2.80;99.90
9939;DHT22;5008;50.656;7.188;2023-01-19T19:06:31;2.70;99.90
9939;DHT22;5008;50.656;7.188;2023-01-19T19:08:58;2.60;99.90
9939;DHT22;5008;50.656;7.188;2023-01-19T19:11:25;2.50;99.90
9939;DHT22;5008;50.656;7.188;2023-01-19T19:13:52;2.40;99.90
9939;DHT22;5008;50.656;7.188;2023-01-19T19:16:21;2.30;99.90
9939;DHT22;5008;50.656;7.188;2023-01-19T19:18:48;2.20;99.90
9939;DHT22;5008;50.656;7.188;2023-01-19T19:21:18;2.10;99.90
9939;DHT22;5008;50.656;7.188;2023-01-19T19:23:49;2.00;99.90
9939;DHT22;5008;50.656;7.188;2023-01-19T19:26:15;1.90;99.90
9939;DHT22;5008;50.656;7.188;2023-01-19T19:28:42;1.80;99.90
9939;DHT22;5008;50.656;7.188;2023-01-19T19:31:11;1.80;99.90
9939;DHT22;5008;50.656;7.188;2023-01-19T19:33:39;1.70;99.90
9939;DHT22;5008;50.656;7.188;2023-01-19T19:36:07;1.60;99.90
9939;DHT22;5008;50.656;7.188;2023-01-19T19:38:35;1.60;99.90
9939;DHT22;5008;50.656;7.188;2023-01-19T19:41:04;1.60;99.90
9939;DHT22;5008;50.656;7.188;2023-01-19T19:43:31;1.50;99.90
9939;DHT22;5008;50.656;7.188;2023-01-19T19:45:59;1.50;99.90
9939;DHT22;5008;50.656;7.188;2023-01-19T19:48:26;1.50;99.90
9939;DHT22;5008;50.656;7.188;2023-01-19T19:50:53;1.50;99.90
9939;DHT22;5008;50.656;7.188;2023-01-19T19:53:20;1.40;99.90
9939;DHT22;5008;50.656;7.188;2023-01-19T19:56:00;1.40;99.90
9939;DHT22;5008;50.656;7.188;2023-01-19T19:58:28;1.40;99.90
9939;DHT22;5008;50.656;7.188;2023-01-19T20:00:55;1.30;99.90
9939;DHT22;5008;50.656;7.188;2023-01-19T20:03:24;1.40;99.90
9939;DHT22;5008;50.656;7.188;2023-01-19T20:05:51;1.40;99.90
9939;DHT22;5008;50.656;7.188;2023-01-19T20:08:18;1.50;99.90
9939;DHT22;5008;50.656;7.188;2023-01-19T20:10:45;1.50;99.90
9939;DHT22;5008;50.656;7.188;2023-01-19T20:13:13;1.50;99.90
9939;DHT22;5008;50.656;7.188;2023-01-19T20:15:42;1.60;99.90
9939;DHT22;5008;50.656;7.188;2023-01-19T20:18:09;1.60;99.90
9939;DHT22;5008;50.656;7.188;2023-01-19T20:20:35;1.60;99.90
9939;DHT22;5008;50.656;7.188;2023-01-19T20:23:03;1.50;99.90
9939;DHT22;5008;50.656;7.188;2023-01-19T20:25:30;1.60;99.90
9939;DHT22;5008;50.656;7.188;2023-01-19T20:27:56;1.50;99.90
9939;DHT22;5008;50.656;7.188;2023-01-19T20:30:25;1.60;99.90
9939;DHT22;5008;50.656;7.188;2023-01-19T20:32:52;1.50;99.90
9939;DHT22;5008;50.656;7.188;2023-01-19T20:35:19;1.60;99.90
9939;DHT22;5008;50.656;7.188;2023-01-19T20:37:46;1.50;99.90
9939;DHT22;5008;50.656;7.188;2023-01-19T20:40:13;1.50;99.90
9939;DHT22;5008;50.656;7.188;2023-01-19T20:42:40;1.50;99.90
9939;DHT22;5008;50.656;7.188;2023-01-19T20:45:07;1.60;99.90
9939;DHT22;5008;50.656;7.188;2023-01-19T20:47:36;1.60;99.90
9939;DHT22;5008;50.656;7.188;2023-01-19T20:50:03;1.60;99.90
9939;DHT22;5008;50.656;7.188;2023-01-19T20:52:30;1.70;99.90
9939;DHT22;5008;50.656;7.188;2023-01-19T20:54:57;1.70;99.90
9939;DHT22;5008;50.656;7.188;2023-01-19T20:57:24;1.60;99.90
9939;DHT22;5008;50.656;7.188;2023-01-19T20:59:51;1.60;99.90
9939;DHT22;5008;50.656;7.188;2023-01-19T21:02:18;1.60;99.90
9939;DHT22;5008;50.656;7.188;2023-01-19T21:04:46;1.60;99.90
9939;DHT22;5008;50.656;7.188;2023-01-19T21:07:12;1.60;99.90
9939;DHT22;5008;50.656;7.188;2023-01-19T21:09:39;1.70;99.90
9939;DHT22;5008;50.656;7.188;2023-01-19T21:12:06;1.70;99.90
9939;DHT22;5008;50.656;7.188;2023-01-19T21:14:34;1.70;99.90
9939;DHT22;5008;50.656;7.188;2023-01-19T21:17:01;1.70;99.90
9939;DHT22;5008;50.656;7.188;2023-01-19T21:19:28;1.70;99.90
9939;DHT22;5008;50.656;7.188;2023-01-19T21:21:56;1.70;99.90
9939;DHT22;5008;50.656;7.188;2023-01-19T21:24:22;1.70;99.90
9939;DHT22;5008;50.656;7.188;2023-01-19T21:26:49;1.70;99.90
9939;DHT22;5008;50.656;7.188;2023-01-19T21:29:16;1.70;99.90
9939;DHT22;5008;50.656;7.188;2023-01-19T21:31:43;1.70;99.90
9939;DHT22;5008;50.656;7.188;2023-01-19T21:34:10;1.70;99.90
9939;DHT22;5008;50.656;7.188;2023-01-19T21:36:36;1.80;99.90
9939;DHT22;5008;50.656;7.188;2023-01-19T21:39:05;1.80;99.90
9939;DHT22;5008;50.656;7.188;2023-01-19T21:41:32;1.80;99.90
9939;DHT22;5008;50.656;7.188;2023-01-19T21:44:00;1.90;99.90
9939;DHT22;5008;50.656;7.188;2023-01-19T21:46:28;1.90;99.90